FASB

Springbok Airport

Springbok, South Africa
METAR FASB 210850Z 01006KT CAVOK 24/04 Q1020
Observed Flight Rules
Apr-21 @ 08:50 UTC (7 hours ago) Visual Flight Rules
Wind Visibility Clouds
10° at 6 knots 10,000+ meters
  • Clear skies
Temperatures Readings
Current 24°C / 75°F
Dewpoint 4°C / 39°F
Humidity 27%
Altimeter 30.12" Hg
Pressure 1020 hPa
Elevation 813
METAR FASB 210850Z 01006KT CAVOK 24/04 Q1020
Observed Flight Rules
Apr-21 @ 08:50 UTC
(7 hours ago)
VFR
Wind Visibility
10° at 6 knots 10,000+ meters
Clouds
  • Clear skies
Temperature Dewpoint
24°C / 75°F 4°C / 39°F
Humidity Altimeter Pressure
27% 30.12" Hg 1020 hPa